CheckWX is a tool to help pilots better visualize weather data.  It is not intended as a substitute for an official pre-flight weather briefing.

18:06:09 UTC

GOBD METAR
Blaise Diagne International Airport
Dakar, Senegal
Current

36 mins ago

GOBD 241730Z 33010KT CAVOK 30/15 Q1010 NOSIG
Observed
Apr-24 @ 17:30 UTC
Wind
  • 330° at 10 KTS
Visibility
10,000+ meters
Flight Rules
VFR
Cloud Levels
  • Clear skies
Temperature
30°C / 86°F
Dewpoint
15°C / 59°F
Heat Index
29°C / 85°F
Humidity
40%
Altimeter
29.82" Hg
Pressure
1009.92 hPa
Previous

1 hour ago

GOBD 241700Z 34011KT CAVOK 30/15 Q1010 NOSIG
Observed
Apr-24 @ 17:00 UTC
Wind
  • 340° at 11 KTS
Visibility
10,000+ meters
Flight Rules
VFR
Cloud Levels
  • Clear skies
Temperature
30°C / 86°F
Dewpoint
15°C / 59°F
Heat Index
29°C / 85°F
Humidity
40%
Altimeter
29.82" Hg
Pressure
1009.92 hPa
Previous

2 hours ago

GOBD 241630Z 34011KT CAVOK 31/16 Q1010 NOSIG
Observed
Apr-24 @ 16:30 UTC
Wind
  • 340° at 11 KTS
Visibility
10,000+ meters
Flight Rules
VFR
Cloud Levels
  • Clear skies
Temperature
31°C / 88°F
Dewpoint
16°C / 61°F
Heat Index
31°C / 88°F
Humidity
40%
Altimeter
29.82" Hg
Pressure
1009.92 hPa